Time;durP1;ratioP1;P1;durP2;ratioP2;P2;SDS_P1;SDS_P2;PMS_P1;PMS_P2;Temp;Humidity;BMP_temperature;BMP_pressure;BME280_temperature;BME280_humidity;BME280_pressure;Samples;Min_cycle;Max_cycle;Signal;HPM_P1;HPM_P2
2021/12/13 00:01:32;;;;;;;;;;;;;;;-1.03;88.17;100961.34;5596515;31;32801;-83
2021/12/13 00:04:38;;;;;;;;;;;;;;;-1.02;88.48;100967.41;5596980;31;34870;-83
2021/12/13 00:07:42;;;;;;;;;;;;;;;-1.07;87.99;100959.78;5597016;31;34153;-83
2021/12/13 00:10:47;;;;;;;;;;;;;;;-1.15;88.75;100951.38;5597428;31;35549;-83
2021/12/13 00:13:55;;;;;;;;;;;;;;;-1.18;88.49;100962.72;5598121;31;35086;-83
2021/12/13 00:17:07;;;;;;;;;;;;;;;-1.14;88.36;100955.66;5604280;31;34101;-83
2021/12/13 00:20:13;;;;;;;;;;;;;;;-1.11;88.23;100952.97;5598808;31;34466;-83
2021/12/13 00:23:18;;;;;;;;;;;;;;;-1.29;89.38;100955.25;5597113;31;35030;-83
2021/12/13 00:26:26;;;;;;;;;;;;;;;-1.32;89.21;100960.56;5597103;31;35081;-83
2021/12/13 00:29:40;;;;;;;;;;;;;;;-1.27;88.84;100956.06;5596705;31;34213;-83
2021/12/13 00:32:43;;;;;;;;;;;;;;;-1.25;88.68;100951.66;5596431;31;33810;-83
2021/12/13 00:35:45;;;;;;;;;;;;;;;-1.37;89.39;100952.06;5596993;31;36284;-84
2021/12/13 00:38:50;;;;;;;;;;;;;;;-1.38;89.47;100958.16;5597024;31;34037;-83
2021/12/13 00:41:56;;;;;;;;;;;;;;;-1.50;91.48;100956.78;5596608;31;35086;-83
2021/12/13 00:45:01;;;;;;;;;;;;;;;-1.49;91.20;100966.28;5597180;31;34097;-83
2021/12/13 00:48:07;;;;;;;;;;;;;;;-1.40;90.24;100966.00;5596700;31;34718;-83
2021/12/13 00:51:16;;;;;;;;;;;;;;;-1.66;91.74;100972.00;5596828;31;34673;-83
2021/12/13 00:54:22;;;;;;;;;;;;;;;-1.74;92.21;100963.56;5596972;31;34573;-83
2021/12/13 00:57:29;;;;;;;;;;;;;;;-1.86;93.12;100967.38;5597872;31;34239;-83
2021/12/13 01:00:43;;;;;;;;;;;;;;;-1.76;92.76;100965.38;5596632;31;34875;-83
2021/12/13 01:03:49;;;;;;;;;;;;;;;-1.76;92.14;100968.81;5596922;31;35562;-83
2021/12/13 01:07:12;;;;;;;;;;;;;;;-1.88;93.09;100971.75;5596664;31;34282;-83
2021/12/13 01:10:34;;;;;;;;;;;;;;;-2.08;94.90;100975.78;5598120;31;34333;-83
2021/12/13 01:13:41;;;;;;;;;;;;;;;-2.28;95.31;100978.09;5596382;31;34095;-83
2021/12/13 01:16:59;;;;;;;;;;;;;;;-2.33;97.33;100978.22;5595968;31;35382;-83
2021/12/13 01:20:28;;;;;;;;;;;;;;;-2.35;97.94;100985.19;5597824;31;34305;-83
2021/12/13 01:23:45;;;;;;;;;;;;;;;-2.25;96.94;100984.03;5596314;31;34386;-83
2021/12/13 01:26:52;;;;;;;;;;;;;;;-2.25;97.00;100983.19;5598138;31;35199;-83
2021/12/13 01:29:54;;;;;;;;;;;;;;;-2.43;97.60;100984.56;5597254;31;34588;-83
2021/12/13 01:33:00;;;;;;;;;;;;;;;-2.30;97.03;100985.87;5597564;31;34709;-83
2021/12/13 01:36:05;;;;;;;;;;;;;;;-2.20;96.24;100987.38;5596202;31;33947;-83
2021/12/13 01:39:11;;;;;;;;;;;;;;;-2.26;96.82;100982.34;5597363;31;33996;-83
2021/12/13 01:42:25;;;;;;;;;;;;;;;-2.37;97.29;100976.59;5596491;31;35639;-83
2021/12/13 01:45:29;;;;;;;;;;;;;;;-2.46;97.83;100980.28;5596697;31;34766;-83
2021/12/13 01:48:36;;;;;;;;;;;;;;;-2.51;98.61;100987.34;5595551;31;34686;-83
2021/12/13 01:51:39;;;;;;;;;;;;;;;-2.47;98.50;100982.91;5597359;31;35043;-83
2021/12/13 01:54:44;;;;;;;;;;;;;;;-2.28;96.81;100991.88;5598155;31;34291;-83
2021/12/13 01:57:56;;;;;;;;;;;;;;;-2.20;95.99;100987.38;5596397;31;33949;-83
2021/12/13 02:01:09;;;;;;;;;;;;;;;-2.02;94.86;100996.34;5596101;31;34865;-83
2021/12/13 02:04:14;;;;;;;;;;;;;;;-1.99;94.66;100989.37;5595874;31;34399;-83
2021/12/13 02:07:16;;;;;;;;;;;;;;;-1.89;93.53;100981.31;5596165;31;34144;-83
2021/12/13 02:10:27;;;;;;;;;;;;;;;-1.89;93.36;100986.50;5595671;31;34516;-83
2021/12/13 02:13:39;;;;;;;;;;;;;;;-2.13;95.42;100992.38;5595470;31;34797;-83
2021/12/13 02:20:27;;;;;;;;;;;;;;;-2.13;94.93;101003.56;5596231;31;35442;-83
2021/12/13 02:23:40;;;;;;;;;;;;;;;-2.13;95.39;100994.97;5597102;31;33940;-83
2021/12/13 02:26:46;;;;;;;;;;;;;;;-2.14;95.44;100996.72;5595849;31;35156;-83
2021/12/13 02:29:50;;;;;;;;;;;;;;;-2.20;95.76;100992.56;5596181;31;35480;-83
2021/12/13 02:33:04;;;;;;;;;;;;;;;-2.36;96.46;100996.44;5595248;31;35072;-83
2021/12/13 02:36:09;;;;;;;;;;;;;;;-2.28;96.15;100997.06;5595377;31;34513;-83
2021/12/13 02:39:15;;;;;;;;;;;;;;;-2.35;96.39;100992.97;5596763;31;34456;-83
2021/12/13 02:42:18;;;;;;;;;;;;;;;-2.63;97.50;100996.25;5595044;31;34294;-83
2021/12/13 02:45:26;;;;;;;;;;;;;;;-2.77;98.63;101004.38;5595634;31;34734;-83
2021/12/13 02:48:34;;;;;;;;;;;;;;;-2.90;99.59;101005.59;5595318;31;34255;-83
2021/12/13 02:51:38;;;;;;;;;;;;;;;-2.93;100.00;101011.69;5602144;31;34406;-83
2021/12/13 02:54:46;;;;;;;;;;;;;;;-3.01;100.00;101013.63;5599385;31;34113;-83
2021/12/13 02:57:50;;;;;;;;;;;;;;;-2.98;100.00;101005.75;5595342;31;34228;-83
2021/12/13 03:01:02;;;;;;;;;;;;;;;-2.92;100.00;100995.28;5595207;31;34416;-83
2021/12/13 03:04:07;;;;;;;;;;;;;;;-2.88;100.00;101003.81;5594962;31;34449;-83
2021/12/13 03:07:17;;;;;;;;;;;;;;;-2.95;100.00;101014.34;5595227;31;34254;-83
2021/12/13 03:10:36;;;;;;;;;;;;;;;-2.85;99.88;101007.16;5594346;31;33798;-83
2021/12/13 03:13:38;;;;;;;;;;;;;;;-2.68;99.79;101005.91;5594448;31;34517;-83
2021/12/13 03:16:44;;;;;;;;;;;;;;;-2.64;100.00;101002.34;5594528;31;34647;-83
2021/12/13 03:19:58;;;;;;;;;;;;;;;-2.72;99.88;100997.38;5595527;31;34933;-84
2021/12/13 03:23:01;;;;;;;;;;;;;;;-2.81;99.89;101001.03;5594947;31;35865;-83
2021/12/13 03:26:19;;;;;;;;;;;;;;;-2.92;100.00;100990.09;5594521;31;34495;-83
2021/12/13 03:29:39;;;;;;;;;;;;;;;-3.03;100.00;100994.69;5595859;31;34860;-83
2021/12/13 03:32:56;;;;;;;;;;;;;;;-3.10;100.00;101005.16;5594725;31;33787;-83
2021/12/13 03:36:00;;;;;;;;;;;;;;;-3.11;100.00;100998.31;5595010;31;34700;-83
2021/12/13 03:39:06;;;;;;;;;;;;;;;-3.15;100.00;101001.84;5594809;31;34276;-83
2021/12/13 03:42:13;;;;;;;;;;;;;;;-3.21;100.00;101011.50;5594935;31;34465;-83
2021/12/13 03:45:18;;;;;;;;;;;;;;;-3.22;100.00;101010.66;5596206;31;34465;-83
2021/12/13 03:48:22;;;;;;;;;;;;;;;-3.22;100.00;101010.66;5593762;31;34882;-83
2021/12/13 03:51:27;;;;;;;;;;;;;;;-3.10;100.00;101005.16;5594284;31;34870;-83
2021/12/13 03:54:31;;;;;;;;;;;;;;;-3.24;100.00;101020.19;5594102;31;34759;-83
2021/12/13 03:57:36;;;;;;;;;;;;;;;-3.19;100.00;101010.56;5593807;31;34492;-83
2021/12/13 04:00:42;;;;;;;;;;;;;;;-3.32;100.00;101009.19;5594055;31;34742;-83
2021/12/13 04:03:45;;;;;;;;;;;;;;;-3.39;100.00;101021.41;5596099;31;34912;-83
2021/12/13 04:06:53;;;;;;;;;;;;;;;-3.19;100.00;101020.09;5596507;31;35300;-83
2021/12/13 04:09:57;;;;;;;;;;;;;;;-3.21;100.00;101017.53;5597473;31;34426;-83
2021/12/13 04:13:01;;;;;;;;;;;;;;;-3.38;100.00;101022.22;5596650;31;34628;-83
2021/12/13 04:16:16;;;;;;;;;;;;;;;-3.42;100.00;101030.06;5596515;31;34125;-83
2021/12/13 04:19:20;;;;;;;;;;;;;;;-3.41;100.00;101026.59;5597067;31;34733;-83
2021/12/13 04:22:31;;;;;;;;;;;;;;;-3.47;100.00;101021.56;5597909;31;34040;-83
2021/12/13 04:25:38;;;;;;;;;;;;;;;-3.54;100.00;101025.16;5596285;31;35430;-83
2021/12/13 04:28:46;;;;;;;;;;;;;;;-3.57;100.00;101022.66;5596535;31;34901;-83
2021/12/13 04:31:49;;;;;;;;;;;;;;;-3.47;100.00;101036.22;5596948;31;34944;-83
2021/12/13 04:34:55;;;;;;;;;;;;;;;-3.20;100.00;101028.72;5596596;31;34897;-83
2021/12/13 04:37:59;;;;;;;;;;;;;;;-3.29;100.00;101028.06;5596820;31;34265;-83
2021/12/13 04:41:06;;;;;;;;;;;;;;;-3.35;100.00;101032.53;5596780;31;34258;-83
2021/12/13 04:44:38;;;;;;;;;;;;;;;-3.30;100.00;101039.31;5596922;31;34102;-83
2021/12/13 04:48:03;;;;;;;;;;;;;;;-3.12;100.00;101027.69;5595800;31;35001;-83
2021/12/13 04:51:11;;;;;;;;;;;;;;;-3.21;100.00;101022.72;5597576;31;34268;-83
2021/12/13 04:54:15;;;;;;;;;;;;;;;-3.28;100.00;101022.00;5597123;31;34520;-83
2021/12/13 04:57:18;;;;;;;;;;;;;;;-3.26;100.00;101024.53;5598203;31;34727;-83
2021/12/13 05:00:22;;;;;;;;;;;;;;;-3.39;100.00;101028.28;5596866;31;35032;-83
2021/12/13 05:03:28;;;;;;;;;;;;;;;-3.37;100.00;101031.69;5598297;31;36672;-83
2021/12/13 05:06:33;;;;;;;;;;;;;;;-3.46;100.00;101031.03;5597240;31;33973;-83
2021/12/13 05:09:36;;;;;;;;;;;;;;;-3.58;100.00;101031.28;5597021;31;34015;-83
2021/12/13 05:12:39;;;;;;;;;;;;;;;-3.64;100.00;101042.62;5596781;31;35171;-83
2021/12/13 05:15:43;;;;;;;;;;;;;;;-3.68;100.00;101048.72;5596545;31;34506;-83
2021/12/13 05:18:54;;;;;;;;;;;;;;;-3.55;100.00;101058.81;5596513;31;34842;-84
2021/12/13 05:22:01;;;;;;;;;;;;;;;-3.47;100.00;101062.09;5596620;31;35201;-83
2021/12/13 05:25:06;;;;;;;;;;;;;;;-3.50;100.00;101068.19;5591557;31;35012;-83
2021/12/13 05:28:12;;;;;;;;;;;;;;;-3.29;100.00;101072.06;5601473;31;34203;-83
2021/12/13 05:31:19;;;;;;;;;;;;;;;-3.26;100.00;101081.50;5595938;31;34413;-83
2021/12/13 05:34:28;;;;;;;;;;;;;;;-3.21;100.00;101079.66;5596041;31;34729;-83
2021/12/13 05:37:42;;;;;;;;;;;;;;;-3.25;100.00;101083.19;5597305;31;34138;-83
2021/12/13 05:40:48;;;;;;;;;;;;;;;-3.28;100.00;101083.25;5596112;31;34660;-83
2021/12/13 05:43:52;;;;;;;;;;;;;;;-3.08;100.00;101089.72;5596247;31;34712;-83
2021/12/13 05:46:56;;;;;;;;;;;;;;;-3.02;100.00;101089.59;5594930;31;34487;-83
2021/12/13 05:49:59;;;;;;;;;;;;;;;-3.09;100.00;101094.06;5597153;31;34322;-83
2021/12/13 05:53:14;;;;;;;;;;;;;;;-3.07;100.00;101088.84;5595544;31;34580;-82
2021/12/13 05:56:19;;;;;;;;;;;;;;;-3.18;100.00;101099.44;5595657;31;34307;-81
2021/12/13 05:59:30;;;;;;;;;;;;;;;-2.95;100.00;101092.00;5596563;31;35267;-82
2021/12/13 06:02:35;;;;;;;;;;;;;;;-2.94;100.00;101103.22;5597038;31;34410;-81
2021/12/13 06:05:41;;;;;;;;;;;;;;;-2.84;100.00;101096.94;5596595;31;34360;-81
2021/12/13 06:08:49;;;;;;;;;;;;;;;-2.78;100.00;101108.88;5594982;31;34285;-82
2021/12/13 06:11:59;;;;;;;;;;;;;;;-2.93;100.00;101099.75;5595618;31;34241;-82
2021/12/13 06:15:20;;;;;;;;;;;;;;;-3.11;100.00;101101.87;5596777;31;34400;-82
2021/12/13 06:18:24;;;;;;;;;;;;;;;-3.10;100.00;101113.91;5595883;31;34079;-82
2021/12/13 06:21:50;;;;;;;;;;;;;;;-3.18;100.00;101115.81;5597016;31;34271;-82
2021/12/13 06:24:53;;;;;;;;;;;;;;;-3.24;100.00;101120.25;5594217;31;35243;-83
2021/12/13 06:27:59;;;;;;;;;;;;;;;-3.16;100.00;101115.78;5594623;31;34092;-83
2021/12/13 06:31:06;;;;;;;;;;;;;;;-3.15;100.00;101114.87;5594679;31;34947;-82
2021/12/13 06:34:14;;;;;;;;;;;;;;;-3.17;100.00;101117.50;5594725;31;34777;-82
2021/12/13 06:37:22;;;;;;;;;;;;;;;-2.93;100.00;101125.63;5596110;31;34845;-82
2021/12/13 06:40:27;;;;;;;;;;;;;;;-3.07;100.00;101132.84;5595435;31;35332;-82
2021/12/13 06:43:48;;;;;;;;;;;;;;;-3.09;100.00;101130.31;5594690;31;34429;-83
2021/12/13 06:46:52;;;;;;;;;;;;;;;-3.01;100.00;101124.97;5595573;31;34202;-83
2021/12/13 06:49:58;;;;;;;;;;;;;;;-3.05;100.00;101125.91;5594321;31;34333;-83
2021/12/13 06:53:13;;;;;;;;;;;;;;;-2.92;100.00;101132.53;5581670;31;34625;-82
2021/12/13 06:56:19;;;;;;;;;;;;;;;-2.88;100.00;101138.47;5594766;31;34363;-82
2021/12/13 06:59:22;;;;;;;;;;;;;;;-2.98;100.00;101137.81;5594018;31;34620;-82
2021/12/13 07:02:39;;;;;;;;;;;;;;;-2.93;100.00;101130.81;5593464;31;34772;-82
2021/12/13 07:05:41;;;;;;;;;;;;;;;-2.85;100.00;101139.25;5594682;31;34496;-83
2021/12/13 07:08:44;;;;;;;;;;;;;;;-2.92;100.00;101142.88;5595109;31;34680;-82
2021/12/13 07:11:56;;;;;;;;;;;;;;;-2.91;100.00;101143.72;5594444;31;34683;-82
2021/12/13 07:15:00;;;;;;;;;;;;;;;-2.85;100.00;101136.66;5594126;31;35562;-83
2021/12/13 07:18:10;;;;;;;;;;;;;;;-2.78;100.00;101139.13;5594921;31;34983;-83
2021/12/13 07:21:18;;;;;;;;;;;;;;;-2.72;100.00;101138.97;5594561;31;34136;-82
2021/12/13 07:24:30;;;;;;;;;;;;;;;-2.64;100.00;101131.87;5594436;31;34130;-82
2021/12/13 07:27:34;;;;;;;;;;;;;;;-2.55;100.00;101139.44;5595138;31;34330;-82
2021/12/13 07:30:39;;;;;;;;;;;;;;;-2.43;100.00;101140.03;5593672;31;34361;-82
2021/12/13 07:33:44;;;;;;;;;;;;;;;-2.50;100.00;101144.50;5593573;31;34636;-82
2021/12/13 07:36:58;;;;;;;;;;;;;;;-2.52;100.00;101151.47;5594839;31;34706;-83
2021/12/13 07:40:24;;;;;;;;;;;;;;;-2.49;100.00;101152.25;5598304;31;35119;-82
2021/12/13 07:43:32;;;;;;;;;;;;;;;-2.45;100.00;101157.34;5590127;31;35281;-83
2021/12/13 07:46:38;;;;;;;;;;;;;;;-2.37;100.00;101155.44;5597266;31;34881;-83
2021/12/13 07:49:44;;;;;;;;;;;;;;;-2.21;100.00;101169.72;5598835;31;35453;-83
2021/12/13 07:52:51;;;;;;;;;;;;;;;-2.11;100.00;101170.34;5597794;31;34832;-83
2021/12/13 07:55:54;;;;;;;;;;;;;;;-2.04;100.00;101181.41;5598138;31;32785;-83
2021/12/13 07:59:04;;;;;;;;;;;;;;;-1.94;100.00;101172.50;5600149;31;34610;-83
2021/12/13 08:02:25;;;;;;;;;;;;;;;-1.76;100.00;101171.16;5600697;31;35178;-83
2021/12/13 08:05:33;;;;;;;;;;;;;;;-1.70;100.00;101167.56;5596383;31;34368;-83
2021/12/13 08:08:44;;;;;;;;;;;;;;;-1.67;100.00;101167.47;5597134;31;34683;-82
2021/12/13 08:11:47;;;;;;;;;;;;;;;-1.59;100.00;101175.91;5597794;31;34644;-82
2021/12/13 08:14:52;;;;;;;;;;;;;;;-1.56;100.00;101175.81;5596558;31;34318;-82
2021/12/13 08:17:59;;;;;;;;;;;;;;;-1.49;100.00;101186.03;5597025;31;34557;-82
2021/12/13 08:21:10;;;;;;;;;;;;;;;-1.49;100.00;101192.09;5597896;31;34731;-82
2021/12/13 08:24:17;;;;;;;;;;;;;;;-1.34;100.00;101187.34;5598035;31;34420;-82
2021/12/13 08:27:22;;;;;;;;;;;;;;;-1.17;100.00;101186.88;5596489;31;34420;-82
2021/12/13 08:30:27;;;;;;;;;;;;;;;-1.28;100.00;101182.84;5596514;31;34149;-84
2021/12/13 08:33:42;;;;;;;;;;;;;;;-1.23;100.00;101192.25;5596614;31;34608;-83
2021/12/13 08:36:47;;;;;;;;;;;;;;;-1.30;100.00;101197.62;5596441;31;34707;-82
2021/12/13 08:39:52;;;;;;;;;;;;;;;-1.13;100.00;101196.28;5596249;31;34929;-83
2021/12/13 08:42:56;;;;;;;;;;;;;;;-0.84;100.00;101202.34;5596220;31;34437;-83
2021/12/13 08:46:00;;;;;;;;;;;;;;;-0.81;100.00;101199.69;5596548;31;34155;-83
2021/12/13 08:49:16;;;;;;;;;;;;;;;-0.68;100.00;101206.22;5596474;31;34168;-83
2021/12/13 08:52:30;;;;;;;;;;;;;;;-0.59;100.00;101212.87;5596476;31;34868;-83
2021/12/13 08:55:37;;;;;;;;;;;;;;;-0.49;100.00;101211.69;5595720;31;35540;-83
2021/12/13 08:58:54;;;;;;;;;;;;;;;-0.47;100.00;101215.09;5596349;31;34582;-83
2021/12/13 09:02:07;;;;;;;;;;;;;;;-0.40;100.00;101205.38;5598008;31;34336;-83
2021/12/13 09:05:12;;;;;;;;;;;;;;;-0.18;99.62;101209.87;5596610;31;34192;-82
2021/12/13 09:08:15;;;;;;;;;;;;;;;0.04;97.97;101216.97;5596125;31;34632;-82
2021/12/13 09:11:42;;;;;;;;;;;;;;;0.24;96.78;101209.34;5596858;31;34977;-83
2021/12/13 09:14:51;;;;;;;;;;;;;;;0.24;96.13;101200.66;5596266;31;35586;-83
2021/12/13 09:17:53;;;;;;;;;;;;;;;0.61;94.77;101215.00;5596925;31;33809;-83
2021/12/13 09:20:58;;;;;;;;;;;;;;;0.69;93.51;101218.19;5596720;31;35516;-83
2021/12/13 09:24:01;;;;;;;;;;;;;;;0.67;93.12;101217.41;5596455;31;35076;-83
2021/12/13 09:27:26;;;;;;;;;;;;;;;0.75;93.01;101212.78;5595784;31;35844;-83
2021/12/13 09:30:34;;;;;;;;;;;;;;;0.83;92.09;101199.47;5596130;31;34460;-83
2021/12/13 09:33:39;;;;;;;;;;;;;;;1.05;91.36;101196.91;5595600;31;34182;-83
2021/12/13 09:36:43;;;;;;;;;;;;;;;0.98;91.51;101197.19;5596220;31;34469;-83
2021/12/13 09:39:56;;;;;;;;;;;;;;;1.00;91.46;101188.44;5595349;31;34831;-83
2021/12/13 09:42:59;;;;;;;;;;;;;;;0.99;91.44;101197.16;5595779;31;34271;-83
2021/12/13 09:46:07;;;;;;;;;;;;;;;1.12;90.91;101184.50;5595870;31;34144;-83
2021/12/13 09:49:19;;;;;;;;;;;;;;;1.20;90.28;101192.84;5598546;31;34827;-83
2021/12/13 09:52:34;;;;;;;;;;;;;;;1.32;89.69;101185.47;5597033;31;34780;-83
2021/12/13 09:55:43;;;;;;;;;;;;;;;1.33;89.09;101177.59;5596390;31;34448;-83
2021/12/13 09:58:50;;;;;;;;;;;;;;;1.43;88.49;101177.25;5597164;31;34685;-83
2021/12/13 10:01:55;;;;;;;;;;;;;;;1.71;86.67;101171.75;5595389;31;34925;-83
2021/12/13 10:04:59;;;;;;;;;;;;;;;1.59;87.41;101167.88;5595429;31;34547;-83
2021/12/13 10:08:04;;;;;;;;;;;;;;;1.63;87.31;101164.25;5596531;31;34897;-83
2021/12/13 10:11:10;;;;;;;;;;;;;;;1.65;87.46;101166.78;5595424;31;34122;-83
2021/12/13 10:14:14;;;;;;;;;;;;;;;1.77;86.30;101168.06;5595795;31;34522;-83
2021/12/13 10:17:17;;;;;;;;;;;;;;;1.82;86.56;101166.09;5596485;31;34392;-83
2021/12/13 10:20:23;;;;;;;;;;;;;;;1.93;85.58;101173.47;5595399;31;34422;-83
2021/12/13 10:23:31;;;;;;;;;;;;;;;2.24;82.95;101167.81;5595965;31;34529;-83
2021/12/13 10:26:54;;;;;;;;;;;;;;;2.25;83.07;101173.88;5595556;31;34672;-84
2021/12/13 10:30:22;;;;;;;;;;;;;;;2.31;82.67;101166.63;5596213;31;34256;-83
2021/12/13 10:33:26;;;;;;;;;;;;;;;2.31;82.95;101166.63;5597020;31;34569;-83
2021/12/13 10:36:29;;;;;;;;;;;;;;;2.35;81.58;101169.94;5595290;31;34364;-83
2021/12/13 10:39:34;;;;;;;;;;;;;;;2.38;82.27;101172.44;5599697;31;34564;-83
2021/12/13 10:42:40;;;;;;;;;;;;;;;2.36;82.48;101162.97;5597246;31;34578;-83
2021/12/13 10:45:48;;;;;;;;;;;;;;;2.16;83.55;101157.69;5597414;31;34728;-83
2021/12/13 10:48:54;;;;;;;;;;;;;;;2.09;84.42;101161.47;5596548;31;34185;-83
2021/12/13 10:52:05;;;;;;;;;;;;;;;2.26;83.50;101157.28;5596375;31;34442;-86
2021/12/13 10:55:11;;;;;;;;;;;;;;;2.40;82.22;101154.94;5596798;31;35035;-83
2021/12/13 10:58:18;;;;;;;;;;;;;;;2.30;83.35;101156.25;5598218;31;34465;-85
2021/12/13 11:01:25;;;;;;;;;;;;;;;2.33;83.04;101157.88;5599572;31;34139;-85
2021/12/13 11:04:34;;;;;;;;;;;;;;;2.24;83.19;101149.53;5600094;31;34715;-85
2021/12/13 11:07:36;;;;;;;;;;;;;;;2.44;82.34;101146.03;5601135;31;35367;-85
2021/12/13 11:10:44;;;;;;;;;;;;;;;2.52;81.68;101142.25;5602540;31;34789;-86
2021/12/13 11:13:58;;;;;;;;;;;;;;;2.83;79.51;101141.69;5599858;31;34318;-85
2021/12/13 11:17:03;;;;;;;;;;;;;;;2.95;78.96;101140.28;5600479;31;34384;-85
2021/12/13 11:20:17;;;;;;;;;;;;;;;2.85;79.33;101133.78;5601035;31;34540;-85
2021/12/13 11:23:21;;;;;;;;;;;;;;;2.94;78.85;101138.59;5600105;31;34540;-85
2021/12/13 11:26:28;;;;;;;;;;;;;;;2.99;78.38;101139.22;5601159;31;34901;-86
2021/12/13 11:29:32;;;;;;;;;;;;;;;2.85;78.94;101144.25;5601410;31;34529;-85
2021/12/13 11:32:34;;;;;;;;;;;;;;;2.86;79.54;101141.56;5598567;31;34472;-83
2021/12/13 11:36:16;;;;;;;;;;;;;;;2.88;80.07;101139.72;5595546;31;34815;-83
2021/12/13 11:39:25;;;;;;;;;;;;;;;2.93;79.61;101142.13;5535343;32;34517;-83
2021/12/13 11:42:31;;;;;;;;;;;;;;;2.88;79.81;101138.84;5535964;32;35096;-83
2021/12/13 11:45:52;;;;;;;;;;;;;;;3.02;78.48;101152.16;5534564;32;34534;-83
2021/12/13 11:49:13;;;;;;;;;;;;;;;3.05;78.34;101135.47;5533437;32;34402;-84
2021/12/13 11:52:43;;;;;;;;;;;;;;;2.89;79.07;101140.56;5533098;32;35060;-83
2021/12/13 11:55:54;;;;;;;;;;;;;;;3.03;78.35;101148.63;5534979;32;35110;-83
2021/12/13 11:58:59;;;;;;;;;;;;;;;2.88;78.91;101150.19;5535894;32;34487;-85
2021/12/13 12:02:11;;;;;;;;;;;;;;;3.00;78.07;101143.53;5534922;32;34628;-84
2021/12/13 12:05:37;;;;;;;;;;;;;;;3.02;77.58;101139.06;5535637;32;34582;-83
2021/12/13 12:08:51;;;;;;;;;;;;;;;3.04;77.89;101139.03;5524629;32;34014;-84
2021/12/13 12:12:12;;;;;;;;;;;;;;;3.26;76.00;101144.06;5540084;31;34962;-82
2021/12/13 12:15:15;;;;;;;;;;;;;;;3.25;76.66;101139.75;5595664;31;34198;-83
2021/12/13 12:18:19;;;;;;;;;;;;;;;3.40;76.34;101136.41;5595670;31;35224;-84
2021/12/13 12:21:43;;;;;;;;;;;;;;;3.42;76.11;101143.34;5594678;31;33995;-82
2021/12/13 12:24:53;;;;;;;;;;;;;;;3.49;76.28;101134.25;5597584;31;34464;-83
2021/12/13 12:28:04;;;;;;;;;;;;;;;3.29;76.81;101138.69;5596721;31;35020;-82
2021/12/13 12:31:07;;;;;;;;;;;;;;;3.39;76.06;101139.09;5596585;31;34552;-83
2021/12/13 12:34:13;;;;;;;;;;;;;;;3.44;74.74;101136.25;5597493;31;34728;-83
2021/12/13 12:37:25;;;;;;;;;;;;;;;3.55;74.38;101145.28;5596848;31;34782;-82
2021/12/13 12:40:46;;;;;;;;;;;;;;;3.36;75.16;101140.09;5596248;31;34735;-82
2021/12/13 12:43:53;;;;;;;;;;;;;;;3.34;75.49;101135.84;5597072;31;35478;-83
2021/12/13 12:46:58;;;;;;;;;;;;;;;3.24;76.16;101140.66;5595629;31;34866;-82
2021/12/13 12:50:34;;;;;;;;;;;;;;;3.34;75.10;101146.31;5596224;31;34995;-83
2021/12/13 12:53:41;;;;;;;;;;;;;;;3.32;75.59;101138.53;5563500;31;34360;-82
2021/12/13 12:56:58;;;;;;;;;;;;;;;3.36;75.70;101134.84;5595924;31;34641;-82
2021/12/13 13:00:03;;;;;;;;;;;;;;;3.11;76.17;101136.94;5597118;31;35080;-83
2021/12/13 13:03:26;;;;;;;;;;;;;;;3.37;74.77;101136.56;5596567;31;34829;-82
2021/12/13 13:06:29;;;;;;;;;;;;;;;3.34;74.66;101134.06;5597572;31;36875;-82
2021/12/13 13:09:40;;;;;;;;;;;;;;;3.45;74.07;101136.19;5600660;31;34789;-82
2021/12/13 13:12:42;;;;;;;;;;;;;;;3.44;73.71;101141.47;5596678;31;33940;-83
2021/12/13 13:15:48;;;;;;;;;;;;;;;3.45;74.14;101144.03;5597931;31;35382;-82
2021/12/13 13:18:53;;;;;;;;;;;;;;;3.49;73.47;101144.72;5597965;31;34546;-82
2021/12/13 13:22:18;;;;;;;;;;;;;;;3.52;73.34;101152.44;5599861;31;34873;-82
2021/12/13 13:25:53;;;;;;;;;;;;;;;3.48;73.50;101153.50;5603151;31;34227;-82
2021/12/13 13:28:57;;;;;;;;;;;;;;;3.45;73.58;101159.72;5596335;31;34293;-82
2021/12/13 13:32:03;;;;;;;;;;;;;;;3.40;73.95;101162.56;5595994;31;34742;-85
2021/12/13 13:35:08;;;;;;;;;;;;;;;3.41;73.65;101163.41;5597104;31;34738;-82
2021/12/13 13:38:33;;;;;;;;;;;;;;;3.29;74.20;101169.22;5597290;31;35426;-82
2021/12/13 13:41:37;;;;;;;;;;;;;;;3.20;73.84;101170.53;5598927;31;34467;-84
2021/12/13 13:44:54;;;;;;;;;;;;;;;3.16;74.31;101174.19;5600033;31;35135;-83
2021/12/13 13:48:02;;;;;;;;;;;;;;;3.06;75.30;101179.00;5596256;31;34117;-83
2021/12/13 13:51:09;;;;;;;;;;;;;;;3.01;74.61;101180.97;5596241;31;34695;-83
2021/12/13 13:54:13;;;;;;;;;;;;;;;2.82;75.93;101171.34;5597367;31;34332;-83
2021/12/13 13:57:17;;;;;;;;;;;;;;;2.81;76.19;101164.47;5595125;31;34103;-83
2021/12/13 14:00:21;;;;;;;;;;;;;;;2.65;76.06;101179.13;5597346;31;34826;-83
2021/12/13 14:03:39;;;;;;;;;;;;;;;2.52;76.99;101184.06;5596209;31;34006;-83
2021/12/13 14:06:42;;;;;;;;;;;;;;;2.47;76.49;101179.87;5593841;31;34415;-83
2021/12/13 14:09:51;;;;;;;;;;;;;;;2.51;76.80;101187.56;5595362;31;34249;-83
2021/12/13 14:13:02;;;;;;;;;;;;;;;2.53;76.53;101191.81;5594939;31;34746;-83
2021/12/13 14:16:10;;;;;;;;;;;;;;;2.31;77.17;101178.81;5595779;31;34885;-84
2021/12/13 14:19:13;;;;;;;;;;;;;;;2.22;77.78;101181.84;5594886;31;34890;-83
2021/12/13 14:22:27;;;;;;;;;;;;;;;2.12;78.01;101178.78;5594899;31;34733;-83
2021/12/13 14:25:30;;;;;;;;;;;;;;;2.00;78.76;101187.97;5595604;31;34785;-83
2021/12/13 14:28:42;;;;;;;;;;;;;;;2.15;78.22;101187.34;5596832;31;34437;-84
2021/12/13 14:31:48;;;;;;;;;;;;;;;1.93;79.19;101183.94;5595104;31;34160;-83
2021/12/13 14:34:51;;;;;;;;;;;;;;;1.79;80.51;101184.50;5596479;31;35259;-83
2021/12/13 14:38:01;;;;;;;;;;;;;;;1.62;81.82;101182.56;5602959;31;34722;-84
2021/12/13 14:41:12;;;;;;;;;;;;;;;1.57;81.81;101195.81;5598741;31;34504;-83
2021/12/13 14:44:21;;;;;;;;;;;;;;;1.53;81.79;101195.06;5601345;31;34397;-84
2021/12/13 14:47:39;;;;;;;;;;;;;;;1.41;83.48;101190.31;5600606;31;34633;-84
2021/12/13 14:50:50;;;;;;;;;;;;;;;1.32;83.30;101190.69;5596319;31;34337;-84
2021/12/13 14:53:58;;;;;;;;;;;;;;;1.23;84.00;101192.75;5594407;31;34571;-83
2021/12/13 14:57:09;;;;;;;;;;;;;;;1.19;84.31;101200.75;5594579;31;34643;-84
2021/12/13 15:00:15;;;;;;;;;;;;;;;1.09;85.02;101192.41;5594151;31;34331;-84
2021/12/13 15:03:20;;;;;;;;;;;;;;;1.06;85.31;101206.44;5594630;31;34702;-84
2021/12/13 15:06:24;;;;;;;;;;;;;;;1.01;85.91;101208.38;5594991;31;34507;-84
2021/12/13 15:09:33;;;;;;;;;;;;;;;0.86;86.99;101209.75;5594906;31;34353;-84
2021/12/13 15:12:39;;;;;;;;;;;;;;;1.22;85.60;101216.28;5595648;31;34086;-84
2021/12/13 15:15:53;;;;;;;;;;;;;;;0.95;87.22;101224.22;5595833;31;34669;-82
2021/12/13 15:18:56;;;;;;;;;;;;;;;0.76;88.65;101229.25;5594841;31;34097;-82
2021/12/13 15:22:00;;;;;;;;;;;;;;;1.13;87.92;101238.31;5594126;31;34959;-82
2021/12/13 15:25:12;;;;;;;;;;;;;;;1.34;87.26;101230.59;5592760;31;33881;-82
2021/12/13 15:28:18;;;;;;;;;;;;;;;1.25;87.87;101233.56;5591933;31;34967;-82
2021/12/13 15:31:23;;;;;;;;;;;;;;;1.21;88.22;101240.66;5612542;31;32678;-82
2021/12/13 15:34:29;;;;;;;;;;;;;;;1.13;88.96;101245.28;5609262;31;35061;-82
2021/12/13 15:37:39;;;;;;;;;;;;;;;1.08;89.33;101240.22;5594500;31;34954;-82
2021/12/13 15:40:51;;;;;;;;;;;;;;;1.18;89.45;101246.81;5594795;31;33911;-82
2021/12/13 15:43:58;;;;;;;;;;;;;;;0.84;91.41;101245.47;5594580;31;34672;-82
2021/12/13 15:47:02;;;;;;;;;;;;;;;0.54;93.46;101245.62;5594120;31;33657;-82
2021/12/13 15:50:27;;;;;;;;;;;;;;;0.58;93.75;101249.84;5594695;31;35343;-82
2021/12/13 15:53:29;;;;;;;;;;;;;;;0.45;94.73;101238.97;5595522;31;35387;-82
2021/12/13 15:56:35;;;;;;;;;;;;;;;0.29;96.25;101254.28;5594909;31;34645;-82
2021/12/13 15:59:39;;;;;;;;;;;;;;;0.14;96.62;101247.00;5598058;31;34811;-82
2021/12/13 16:02:44;;;;;;;;;;;;;;;-0.04;98.36;101248.44;5597894;31;34771;-82
2021/12/13 16:05:48;;;;;;;;;;;;;;;-0.17;99.89;101245.41;5602624;31;34751;-82
2021/12/13 16:08:50;;;;;;;;;;;;;;;0.17;99.13;101252.06;5598428;31;34774;-82
2021/12/13 16:12:00;;;;;;;;;;;;;;;0.07;100.00;101251.53;5597463;31;34805;-82
2021/12/13 16:15:15;;;;;;;;;;;;;;;-0.06;100.00;101248.50;5597522;31;34877;-82